Time;durP1;ratioP1;P1;durP2;ratioP2;P2;SDS_P1;SDS_P2;PMS_P1;PMS_P2;Temp;Humidity;BMP_temperature;BMP_pressure;BME280_temperature;BME280_humidity;BME280_pressure;Samples;Min_cycle;Max_cycle;Signal;HPM_P1;HPM_P2
2023/07/25 00:00:32;;;;;;;0.00;0.00;;;;;;;14.81;100.00;100669.50;5030387;28;20443;-50
2023/07/25 00:02:58;;;;;;;0.00;0.00;;;;;;;14.80;100.00;100668.66;5031103;28;20021;-46
2023/07/25 00:05:23;;;;;;;0.00;0.00;;;;;;;14.79;100.00;100668.88;5030491;28;20069;-44
2023/07/25 00:07:48;;;;;;;0.00;0.00;;;;;;;14.75;100.00;100664.94;5032416;28;20029;-48
2023/07/25 00:10:14;;;;;;;0.00;0.00;;;;;;;14.74;100.00;100671.38;5033520;28;20021;-48
2023/07/25 00:12:39;;;;;;;0.00;0.00;;;;;;;14.74;100.00;100665.97;5033597;28;20033;-48
2023/07/25 00:15:05;;;;;;;0.00;0.00;;;;;;;14.75;100.00;100664.94;5033334;28;20036;-46
2023/07/25 00:17:31;;;;;;;0.00;0.00;;;;;;;14.80;100.00;100659.72;5033279;28;20163;-46
2023/07/25 00:19:57;;;;;;;0.00;0.00;;;;;;;14.77;100.00;100668.25;5033368;28;20591;-46
2023/07/25 00:22:22;;;;;;;0.00;0.00;;;;;;;14.75;100.00;100657.63;5033336;28;20519;-50
2023/07/25 00:24:48;;;;;;;0.00;0.00;;;;;;;14.75;100.00;100660.34;5033181;28;20030;-47
2023/07/25 00:27:13;;;;;;;0.00;0.00;;;;;;;14.80;100.00;100652.41;5033341;28;20064;-50
2023/07/25 00:29:38;;;;;;;0.00;0.00;;;;;;;14.75;100.00;100646.81;5033212;28;20111;-48
2023/07/25 00:32:04;;;;;;;0.00;0.00;;;;;;;14.71;100.00;100654.50;5033134;28;20100;-48
2023/07/25 00:34:29;;;;;;;0.00;0.00;;;;;;;14.71;100.00;100645.56;5033034;28;20087;-44
2023/07/25 00:36:55;;;;;;;0.00;0.00;;;;;;;14.68;100.00;100648.69;5033062;28;20083;-47
2023/07/25 00:39:20;;;;;;;0.00;0.00;;;;;;;14.69;100.00;100645.78;5032972;28;20448;-47
2023/07/25 00:41:46;;;;;;;0.00;0.00;;;;;;;14.68;100.00;100645.97;5032923;28;20071;-47
2023/07/25 00:44:11;;;;;;;0.00;0.00;;;;;;;14.65;100.00;100641.81;5032926;28;20422;-48
2023/07/25 00:46:37;;;;;;;0.00;0.00;;;;;;;14.66;100.00;100642.66;5033052;28;20083;-49
2023/07/25 00:49:04;;;;;;;0.00;0.00;;;;;;;14.61;100.00;100646.03;5032727;28;20034;-47
2023/07/25 00:51:30;;;;;;;0.00;0.00;;;;;;;14.59;100.00;100647.28;5032977;28;20452;-51
2023/07/25 00:53:55;;;;;;;0.00;0.00;;;;;;;14.54;100.00;100647.91;5032685;28;20025;-47
2023/07/25 00:56:21;;;;;;;0.00;0.00;;;;;;;14.53;100.00;100648.09;5032988;28;20021;-45
2023/07/25 00:58:47;;;;;;;0.00;0.00;;;;;;;14.49;100.00;100648.50;5048187;28;20107;-47
2023/07/25 01:01:13;;;;;;;0.00;0.00;;;;;;;14.50;100.00;100643.91;5033236;28;20034;-47
2023/07/25 01:03:39;;;;;;;0.00;0.00;;;;;;;14.48;100.00;100641.44;5034044;28;20419;-47
2023/07/25 01:06:07;;;;;;;0.00;0.00;;;;;;;14.45;100.00;100654.56;5049627;28;20025;-45
2023/07/25 01:08:32;;;;;;;0.00;0.00;;;;;;;14.43;100.00;100651.25;5034056;28;20087;-47
2023/07/25 01:10:58;;;;;;;0.00;0.00;;;;;;;14.39;100.00;100648.13;5033930;28;20037;-45
2023/07/25 01:13:24;;;;;;;0.00;0.00;;;;;;;14.37;100.00;100643.94;5033659;28;20021;-45
2023/07/25 01:15:50;;;;;;;0.00;0.00;;;;;;;14.35;100.00;100648.75;5033293;28;20017;-46
2023/07/25 01:18:15;;;;;;;0.00;0.00;;;;;;;14.35;100.00;100651.44;5048162;28;20025;-46
2023/07/25 01:20:41;;;;;;;0.00;0.00;;;;;;;14.34;100.00;100644.38;5032767;28;20425;-46
2023/07/25 01:23:09;;;;;;;0.00;0.00;;;;;;;14.32;100.00;100651.88;5031284;28;20029;-47
2023/07/25 01:25:34;;;;;;;0.00;0.00;;;;;;;14.34;100.00;100649.78;5047985;28;20107;-45
2023/07/25 01:28:00;;;;;;;0.00;0.00;;;;;;;14.35;100.00;100654.16;5032306;28;20468;-47
2023/07/25 01:30:25;;;;;;;0.00;0.00;;;;;;;14.37;100.00;100646.66;5032345;28;20116;-49
2023/07/25 01:32:51;;;;;;;0.00;0.00;;;;;;;14.36;100.00;100645.00;5032665;28;20053;-46
2023/07/25 01:35:17;;;;;;;0.00;0.00;;;;;;;14.32;100.00;100647.28;5032081;28;20370;-48
2023/07/25 01:37:42;;;;;;;0.00;0.00;;;;;;;14.32;100.00;100646.47;5032063;28;20028;-47
2023/07/25 01:40:08;;;;;;;0.00;0.00;;;;;;;14.32;100.00;100638.34;5032957;28;20033;-47
2023/07/25 01:42:33;;;;;;;0.00;0.00;;;;;;;14.30;100.00;100638.56;5048182;28;20028;-46
2023/07/25 01:44:59;;;;;;;0.00;0.00;;;;;;;14.30;100.00;100637.72;5032467;28;20119;-47
2023/07/25 01:47:25;;;;;;;0.00;0.00;;;;;;;14.30;100.00;100640.41;5032039;28;20029;-45
2023/07/25 01:49:54;;;;;;;0.00;0.00;;;;;;;14.31;100.00;100642.09;5046987;28;20099;-44
2023/07/25 01:52:20;;;;;;;0.00;0.00;;;;;;;14.36;100.00;100642.31;5030407;28;20124;-46
2023/07/25 01:54:48;;;;;;;0.00;0.00;;;;;;;14.36;100.00;100636.88;5031850;28;20113;-46
2023/07/25 01:57:13;;;;;;;0.00;0.00;;;;;;;14.39;100.00;100631.03;5031409;28;20449;-46
2023/07/25 01:59:39;;;;;;;0.00;0.00;;;;;;;14.42;100.00;100636.03;5030237;28;20088;-49
2023/07/25 02:02:04;;;;;;;0.00;0.00;;;;;;;14.43;100.00;100643.13;5030137;28;20132;-47
2023/07/25 02:04:30;;;;;;;0.00;0.00;;;;;;;14.44;100.00;100639.38;5031416;28;20108;-47
2023/07/25 02:06:55;;;;;;;0.00;0.00;;;;;;;14.47;100.00;100633.50;5031335;28;20128;-50
2023/07/25 02:09:20;;;;;;;0.00;0.00;;;;;;;14.49;100.00;100639.56;5031359;28;20025;-46
2023/07/25 02:11:45;;;;;;;0.00;0.00;;;;;;;14.47;100.00;100634.34;5031173;28;20136;-45
2023/07/25 02:14:11;;;;;;;0.00;0.00;;;;;;;14.49;100.00;100626.00;5032062;28;20022;-46
2023/07/25 02:16:37;;;;;;;0.00;0.00;;;;;;;14.48;100.00;100627.03;5031912;28;20026;-45
2023/07/25 02:19:03;;;;;;;0.00;0.00;;;;;;;14.48;100.00;100627.03;5031171;28;20142;-45
2023/07/25 02:21:29;;;;;;;0.00;0.00;;;;;;;14.50;100.00;100633.09;5031299;28;20364;-49
2023/07/25 02:23:54;;;;;;;0.00;0.00;;;;;;;14.56;100.00;100628.72;5031186;28;20027;-50
2023/07/25 02:26:19;;;;;;;0.00;0.00;;;;;;;14.54;100.00;100625.41;5029554;28;20052;-48
2023/07/25 02:28:45;;;;;;;0.00;0.00;;;;;;;14.57;100.00;100617.69;5031002;28;20041;-50
2023/07/25 02:31:10;;;;;;;0.00;0.00;;;;;;;14.65;100.00;100635.59;5029149;28;20048;-50
2023/07/25 02:33:35;;;;;;;0.00;0.00;;;;;;;14.69;100.00;100637.66;5030869;28;20065;-47
2023/07/25 02:36:01;;;;;;;0.00;0.00;;;;;;;14.74;100.00;100633.47;5030606;28;20042;-48
2023/07/25 02:38:27;;;;;;;0.00;0.00;;;;;;;14.79;100.00;100637.19;5030932;28;20029;-49
2023/07/25 02:40:52;;;;;;;0.00;0.00;;;;;;;14.83;100.00;100637.59;5030615;28;20030;-50
2023/07/25 02:43:17;;;;;;;0.00;0.00;;;;;;;14.80;100.00;100638.88;5030848;28;20056;-48
2023/07/25 02:45:43;;;;;;;0.00;0.00;;;;;;;14.76;100.00;100653.03;5030783;28;20025;-49
2023/07/25 02:48:08;;;;;;;0.00;0.00;;;;;;;14.68;100.00;100663.06;5030691;28;20053;-47
2023/07/25 02:50:33;;;;;;;0.00;0.00;;;;;;;14.61;100.00;100673.09;5030834;28;20029;-48
2023/07/25 02:52:59;;;;;;;0.00;0.00;;;;;;;14.53;100.00;100684.13;5030964;28;20029;-48
2023/07/25 02:55:25;;;;;;;0.00;0.00;;;;;;;14.44;100.00;100682.69;5030768;28;20032;-48
2023/07/25 02:57:50;;;;;;;0.00;0.00;;;;;;;14.41;100.00;100688.53;5030816;28;20053;-46
2023/07/25 03:00:16;;;;;;;0.00;0.00;;;;;;;14.33;100.00;100696.88;5030589;28;20021;-50
2023/07/25 03:02:42;;;;;;;0.00;0.00;;;;;;;14.24;100.00;100688.97;5030540;28;20036;-49
2023/07/25 03:05:08;;;;;;;0.00;0.00;;;;;;;14.22;100.00;100687.53;5030511;28;20030;-49
2023/07/25 03:07:33;;;;;;;0.00;0.00;;;;;;;14.22;100.00;100696.47;5030235;28;20117;-50
2023/07/25 03:09:59;;;;;;;0.00;0.00;;;;;;;14.22;100.00;100691.06;5030459;28;20030;-52
2023/07/25 03:12:24;;;;;;;0.00;0.00;;;;;;;14.23;100.00;100697.28;5030457;28;20033;-50
2023/07/25 03:14:50;;;;;;;0.00;0.00;;;;;;;14.27;100.00;100687.72;5030708;28;20391;-48
2023/07/25 03:17:15;;;;;;;0.00;0.00;;;;;;;14.26;100.00;100689.56;5030319;28;20022;-46
2023/07/25 03:19:40;;;;;;;0.00;0.00;;;;;;;14.22;100.00;100691.06;5030557;28;20413;-48
2023/07/25 03:22:06;;;;;;;0.00;0.00;;;;;;;14.27;100.00;100691.25;5030315;28;20075;-48
2023/07/25 03:24:31;;;;;;;0.00;0.00;;;;;;;14.35;100.00;100684.78;5030382;28;20060;-47
2023/07/25 03:26:57;;;;;;;0.00;0.00;;;;;;;14.39;100.00;100674.34;5030204;28;20407;-48
2023/07/25 03:29:22;;;;;;;0.00;0.00;;;;;;;14.46;100.00;100669.78;5045773;28;20049;-51
2023/07/25 03:31:47;;;;;;;0.00;0.00;;;;;;;14.47;100.00;100660.59;5030252;28;20080;-51
2023/07/25 03:34:13;;;;;;;0.00;0.00;;;;;;;14.55;100.00;100659.56;5030249;28;20025;-52
2023/07/25 03:36:38;;;;;;;0.00;0.00;;;;;;;14.55;100.00;100656.84;5030418;28;20030;-51
2023/07/25 03:39:04;;;;;;;0.00;0.00;;;;;;;14.55;100.00;100649.56;5030351;28;20120;-48
2023/07/25 03:41:29;;;;;;;0.00;0.00;;;;;;;14.56;100.00;100653.94;5030341;28;20022;-51
2023/07/25 03:43:55;;;;;;;0.00;0.00;;;;;;;14.59;100.00;100650.81;5033884;28;20104;-52
2023/07/25 03:46:20;;;;;;;0.00;0.00;;;;;;;14.63;100.00;100652.03;5034048;28;20029;-51
2023/07/25 03:48:45;;;;;;;0.00;0.00;;;;;;;14.61;100.00;100645.16;5033712;28;20413;-50
2023/07/25 03:51:11;;;;;;;0.00;0.00;;;;;;;14.64;100.00;100645.59;5033932;28;20030;-51
2023/07/25 03:53:36;;;;;;;0.00;0.00;;;;;;;14.65;100.00;100641.00;5033653;28;20154;-50
2023/07/25 03:56:01;;;;;;;0.00;0.00;;;;;;;14.68;100.00;100649.50;5033731;28;20052;-49
2023/07/25 03:58:27;;;;;;;0.00;0.00;;;;;;;14.68;100.00;100651.41;5033671;28;20107;-50
2023/07/25 04:00:52;;;;;;;0.00;0.00;;;;;;;14.66;100.00;100658.91;5033860;28;20056;-47
2023/07/25 04:03:17;;;;;;;0.00;0.00;;;;;;;14.63;100.00;100653.91;5033673;28;20033;-48
2023/07/25 04:05:43;;;;;;;0.00;0.00;;;;;;;14.74;100.00;100641.59;5033956;28;20021;-49
2023/07/25 04:08:08;;;;;;;0.00;0.00;;;;;;;14.70;100.00;100647.44;5033660;28;20021;-47
2023/07/25 04:10:33;;;;;;;0.00;0.00;;;;;;;14.75;100.00;100640.56;5033892;28;20026;-46
2023/07/25 04:12:59;;;;;;;0.00;0.00;;;;;;;14.71;100.00;100648.25;5033858;28;20057;-48
2023/07/25 04:15:24;;;;;;;0.00;0.00;;;;;;;14.74;100.00;100644.28;5034207;28;20521;-45
2023/07/25 04:17:49;;;;;;;0.00;0.00;;;;;;;14.70;100.00;100643.91;5033358;28;20028;-46
2023/07/25 04:20:15;;;;;;;0.00;0.00;;;;;;;14.68;100.00;100646.81;5034085;28;20026;-45
2023/07/25 04:22:40;;;;;;;0.00;0.00;;;;;;;14.69;100.00;100648.50;5033525;28;20053;-47
2023/07/25 04:25:06;;;;;;;0.00;0.00;;;;;;;14.68;100.00;100652.22;5033782;28;20079;-46
2023/07/25 04:27:31;;;;;;;0.00;0.00;;;;;;;14.67;100.00;100644.34;5033743;28;20059;-46
2023/07/25 04:29:57;;;;;;;0.00;0.00;;;;;;;14.70;100.00;100652.03;5033847;28;20025;-49
2023/07/25 04:32:22;;;;;;;0.00;0.00;;;;;;;14.78;100.00;100650.97;5033602;28;20041;-48
2023/07/25 04:34:47;;;;;;;0.00;0.00;;;;;;;14.81;100.00;100656.78;5033204;28;20104;-48
2023/07/25 04:37:13;;;;;;;0.00;0.00;;;;;;;14.83;100.00;100657.38;5033373;28;20079;-51
2023/07/25 04:39:38;;;;;;;0.00;0.00;;;;;;;14.91;100.00;100651.72;5033277;28;20018;-46
2023/07/25 04:42:04;;;;;;;0.00;0.00;;;;;;;14.93;100.00;100655.06;5033524;28;20025;-48
2023/07/25 04:44:29;;;;;;;0.00;0.00;;;;;;;14.95;100.00;100652.13;5033348;28;20017;-47
2023/07/25 04:46:55;;;;;;;0.00;0.00;;;;;;;15.05;100.00;100655.19;5033748;28;20017;-47
2023/07/25 04:49:20;;;;;;;0.00;0.00;;;;;;;15.11;100.00;100654.34;5032829;28;20057;-51
2023/07/25 04:51:45;;;;;;;0.00;0.00;;;;;;;15.17;100.00;100660.78;5032816;28;20057;-48
2023/07/25 04:54:11;;;;;;;0.00;0.00;;;;;;;15.29;100.00;100648.19;5032437;28;20025;-47
2023/07/25 04:56:40;;;;;;;0.00;0.00;;;;;;;15.37;100.00;100656.06;5032596;28;20030;-50
2023/07/25 04:59:05;;;;;;;0.00;0.00;;;;;;;15.38;100.00;100656.91;5032678;28;20022;-46
2023/07/25 05:01:30;;;;;;;0.00;0.00;;;;;;;15.36;100.00;100657.13;5032676;28;20088;-48
2023/07/25 05:03:56;;;;;;;0.00;0.00;;;;;;;15.40;100.00;100657.50;5032507;28;20025;-47
2023/07/25 05:06:21;;;;;;;0.00;0.00;;;;;;;15.39;100.00;100652.31;5031397;28;20025;-47
2023/07/25 05:08:46;;;;;;;0.00;0.00;;;;;;;15.32;100.00;100655.91;5032598;28;20495;-48
2023/07/25 05:11:12;;;;;;;0.00;0.00;;;;;;;15.27;100.00;100649.44;5032701;28;20025;-48
2023/07/25 05:13:37;;;;;;;0.00;0.00;;;;;;;15.27;100.00;100660.28;5032493;28;20021;-50
2023/07/25 05:16:03;;;;;;;0.00;0.00;;;;;;;15.31;100.00;100650.69;5032557;28;20325;-49
2023/07/25 05:18:28;;;;;;;0.00;0.00;;;;;;;15.39;100.00;100655.84;5032380;28;20041;-46
2023/07/25 05:20:53;;;;;;;0.00;0.00;;;;;;;15.44;100.00;100661.44;5031004;28;20219;-47
2023/07/25 05:23:19;;;;;;;0.00;0.00;;;;;;;15.53;100.00;100660.16;5032359;28;20025;-51
2023/07/25 05:25:47;;;;;;;0.00;0.00;;;;;;;15.64;100.00;100660.47;5032330;28;20029;-51
2023/07/25 05:28:13;;;;;;;0.00;0.00;;;;;;;15.68;100.00;100651.69;5032517;28;20467;-49
2023/07/25 05:30:38;;;;;;;0.00;0.00;;;;;;;15.65;100.00;100657.56;5032760;28;20034;-47
2023/07/25 05:33:03;;;;;;;0.00;0.00;;;;;;;15.66;100.00;100652.97;5035910;28;20018;-47
2023/07/25 05:35:29;;;;;;;0.00;0.00;;;;;;;15.62;100.00;100658.00;5031808;28;20570;-49
2023/07/25 05:37:54;;;;;;;0.00;0.00;;;;;;;15.56;100.00;100659.72;5033781;28;20029;-46
2023/07/25 05:40:20;;;;;;;0.00;0.00;;;;;;;15.58;100.00;100660.31;5033239;28;20029;-45
2023/07/25 05:42:46;;;;;;;0.00;0.00;;;;;;;15.58;100.00;100654.88;5032460;28;20030;-46
2023/07/25 05:45:12;;;;;;;0.00;0.00;;;;;;;15.64;100.00;100665.91;5032009;28;20030;-43
2023/07/25 05:47:37;;;;;;;0.00;0.00;;;;;;;15.77;100.00;100654.97;5031675;28;20025;-45
2023/07/25 05:50:03;;;;;;;0.00;0.00;;;;;;;15.90;100.00;100654.03;5031934;28;20095;-46
2023/07/25 05:52:28;;;;;;;0.00;0.00;;;;;;;15.90;100.00;100660.28;5032023;28;20026;-47
2023/07/25 05:54:53;;;;;;;0.00;0.00;;;;;;;15.92;100.00;100657.38;5031767;28;20047;-47
2023/07/25 05:57:20;;;;;;;0.00;0.00;;;;;;;16.09;100.00;100663.91;5031465;28;20504;-48
2023/07/25 05:59:45;;;;;;;0.00;0.00;;;;;;;16.24;100.00;100668.97;5031628;28;20396;-46
2023/07/25 06:02:11;;;;;;;0.00;0.00;;;;;;;16.43;100.00;100661.72;5031516;28;20025;-48
2023/07/25 06:04:36;;;;;;;0.00;0.00;;;;;;;16.58;100.00;100659.44;5030469;28;20571;-51
2023/07/25 06:07:02;;;;;;;0.00;0.00;;;;;;;16.72;100.00;100657.41;5031572;28;20026;-45
2023/07/25 06:09:27;;;;;;;0.00;0.00;;;;;;;16.84;100.00;100660.22;5031194;28;20044;-49
2023/07/25 06:11:55;;;;;;;0.00;0.00;;;;;;;17.01;100.00;100655.84;5031366;28;20026;-48
2023/07/25 06:14:20;;;;;;;0.00;0.00;;;;;;;17.30;100.00;100662.34;5031446;28;20025;-49
2023/07/25 06:16:46;;;;;;;0.00;0.00;;;;;;;17.47;100.00;100656.25;5031436;28;20037;-47
2023/07/25 06:19:12;;;;;;;0.00;0.00;;;;;;;17.73;100.00;100664.00;5031297;28;20033;-49
2023/07/25 06:21:37;;;;;;;0.00;0.00;;;;;;;18.08;100.00;100667.84;5031146;28;20109;-48
2023/07/25 06:24:03;;;;;;;0.00;0.00;;;;;;;18.56;100.00;100664.91;5031447;28;20021;-48
2023/07/25 06:26:28;;;;;;;0.00;0.00;;;;;;;19.21;100.00;100669.25;5030789;28;20029;-50
2023/07/25 06:28:54;;;;;;;0.00;0.00;;;;;;;19.82;100.00;100666.81;5030841;28;20112;-48
2023/07/25 06:31:19;;;;;;;0.00;0.00;;;;;;;20.50;100.00;100674.97;5030962;28;20029;-47
2023/07/25 06:33:44;;;;;;;0.00;0.00;;;;;;;21.15;97.77;100671.44;5031195;28;20025;-45
2023/07/25 06:36:10;;;;;;;0.00;0.00;;;;;;;21.19;96.80;100667.09;5031082;28;20021;-47
2023/07/25 06:38:35;;;;;;;0.00;0.00;;;;;;;21.60;93.99;100672.22;5031474;28;20446;-45
2023/07/25 06:41:00;;;;;;;0.00;0.00;;;;;;;22.09;91.43;100670.16;5031104;28;20175;-46
2023/07/25 06:43:26;;;;;;;0.00;0.00;;;;;;;22.55;89.67;100667.72;5031056;28;20546;-48
2023/07/25 06:45:52;;;;;;;0.00;0.00;;;;;;;22.92;88.35;100668.72;5030879;28;20079;-46
2023/07/25 06:48:17;;;;;;;0.00;0.00;;;;;;;23.08;85.65;100669.66;5031277;28;20063;-46
2023/07/25 06:50:43;;;;;;;0.00;0.00;;;;;;;22.66;85.74;100676.03;5030990;28;20025;-49
2023/07/25 06:53:09;;;;;;;0.00;0.00;;;;;;;21.92;88.62;100674.94;5031369;28;20356;-47
2023/07/25 06:55:34;;;;;;;0.00;0.00;;;;;;;21.34;91.33;100668.34;5030408;28;20472;-48
2023/07/25 06:58:00;;;;;;;0.00;0.00;;;;;;;20.50;95.82;100664.03;5030956;28;20088;-48
2023/07/25 07:00:26;;;;;;;0.00;0.00;;;;;;;19.59;100.00;100675.09;5030628;28;20032;-47
2023/07/25 07:02:53;;;;;;;0.00;0.00;;;;;;;19.14;100.00;100674.03;5030410;28;20029;-47
2023/07/25 07:05:19;;;;;;;;;;;;;;;18.59;100.00;100672.59;5031203;28;20026;-48
2023/07/25 07:07:44;;;;;;;0.00;0.00;;;;;;;18.52;100.00;100679.22;5031212;28;19920;-47
2023/07/25 07:10:09;;;;;;;0.00;0.00;;;;;;;18.58;100.00;100684.53;5030868;28;20284;-47
2023/07/25 07:12:35;;;;;;;0.00;0.00;;;;;;;18.97;100.00;100682.13;5030550;28;20089;-48
2023/07/25 07:15:00;;;;;;;0.00;0.00;;;;;;;19.10;100.00;100682.94;5030529;28;20097;-47
2023/07/25 07:17:25;;;;;;;0.00;0.00;;;;;;;19.75;100.00;100685.28;5033547;28;20061;-47
2023/07/25 07:19:53;;;;;;;0.00;0.00;;;;;;;21.13;98.92;100684.56;5034606;28;20083;-47
2023/07/25 07:22:18;;;;;;;0.00;0.00;;;;;;;21.81;92.95;100684.19;5034691;28;20249;-46
2023/07/25 07:24:43;;;;;;;0.00;0.00;;;;;;;21.61;92.17;100685.63;5034549;28;20113;-47
2023/07/25 07:27:09;;;;;;;0.00;0.00;;;;;;;21.12;93.73;100688.38;5034242;28;20097;-47
2023/07/25 07:29:34;;;;;;;0.00;0.00;;;;;;;20.74;96.97;100684.59;5049803;28;20115;-45
2023/07/25 07:32:02;;;;;;;0.00;0.00;;;;;;;20.16;96.61;100680.47;5034388;28;20385;-46
2023/07/25 07:34:28;;;;;;;0.00;0.00;;;;;;;19.89;98.24;100669.41;5034266;28;20542;-48
2023/07/25 07:36:53;;;;;;;0.00;0.00;;;;;;;20.39;99.19;100674.81;5034343;28;20053;-52
2023/07/25 07:39:18;;;;;;;0.00;0.00;;;;;;;21.33;92.31;100680.38;5034332;28;20029;-48
2023/07/25 07:41:44;;;;;;;0.00;0.00;;;;;;;21.53;92.74;100683.38;5049820;28;20029;-47
2023/07/25 07:44:09;;;;;;;0.00;0.00;;;;;;;22.35;89.25;100686.81;5034793;28;20341;-45
2023/07/25 07:46:35;;;;;;;0.00;0.00;;;;;;;23.19;85.47;100683.13;5034093;28;20106;-49
2023/07/25 07:49:00;;;;;;;0.00;0.00;;;;;;;24.04;81.36;100692.88;5034503;28;20080;-49
2023/07/25 07:51:26;;;;;;;0.00;0.00;;;;;;;23.99;79.28;100690.16;5034333;28;20025;-47
2023/07/25 07:53:52;;;;;;;0.00;0.00;;;;;;;23.33;78.63;100688.94;5038783;28;20063;-44
2023/07/25 07:56:18;;;;;;;0.00;0.00;;;;;;;23.66;80.13;100697.78;5034048;28;20029;-46
2023/07/25 07:58:43;;;;;;;0.00;0.00;;;;;;;23.59;80.25;100697.22;5033984;28;20045;-44
2023/07/25 08:01:19;;;;;;;0.00;0.00;;;;;;;23.88;79.71;100698.41;5034321;28;20025;-47
2023/07/25 08:03:45;;;;;;;0.00;0.00;;;;;;;24.80;78.17;100702.94;5034096;28;20025;-47
2023/07/25 08:06:11;;;;;;;0.00;0.00;;;;;;;25.54;72.18;100698.50;5033966;28;20430;-43
2023/07/25 08:08:36;;;;;;;0.00;0.00;;;;;;;25.58;69.37;100709.75;5033974;28;20065;-49
2023/07/25 08:11:01;;;;;;;0.00;0.00;;;;;;;25.39;69.83;100712.38;5033997;28;20109;-48
2023/07/25 08:13:27;;;;;;;0.00;0.00;;;;;;;25.71;68.88;100702.78;5049266;28;20029;-45
2023/07/25 08:15:52;;;;;;;0.00;0.00;;;;;;;25.81;70.00;100702.72;5034079;28;20026;-47
2023/07/25 08:18:18;;;;;;;0.00;0.00;;;;;;;26.25;68.79;100697.13;5033646;28;20037;-45
2023/07/25 08:20:45;;;;;;;0.00;0.00;;;;;;;27.04;64.36;100704.28;5032524;28;20022;-49
2023/07/25 08:23:10;;;;;;;0.00;0.00;;;;;;;26.01;64.56;100712.78;5033727;28;20033;-47
2023/07/25 08:25:39;;;;;;;0.00;0.00;;;;;;;24.47;68.18;100708.00;5033870;28;20029;-46
2023/07/25 08:28:05;;;;;;;0.00;0.00;;;;;;;23.65;75.25;100709.88;5048207;28;20041;-44
2023/07/25 08:30:31;;;;;;;0.00;0.00;;;;;;;23.50;76.97;100720.84;5033921;28;20025;-46
2023/07/25 08:32:56;;;;;;;0.00;0.00;;;;;;;22.41;77.69;100721.41;5033694;28;20029;-47
2023/07/25 08:35:22;;;;;;;0.00;0.00;;;;;;;21.63;82.24;100721.81;5034653;28;20411;-46
2023/07/25 08:37:47;;;;;;;0.00;0.00;;;;;;;20.96;85.44;100724.84;5035386;28;20033;-45
2023/07/25 08:40:12;;;;;;;0.00;0.00;;;;;;;20.29;88.66;100723.03;5036168;28;20522;-46
2023/07/25 08:42:41;;;;;;;0.00;0.00;;;;;;;19.97;91.01;100730.97;5035870;28;20026;-45
2023/07/25 08:45:07;;;;;;;0.00;0.00;;;;;;;19.64;92.88;100722.47;5033531;28;20097;-47
2023/07/25 08:47:33;;;;;;;0.00;0.00;;;;;;;20.02;93.48;100725.59;5034523;28;20464;-47
2023/07/25 08:50:00;;;;;;;0.00;0.00;;;;;;;21.56;91.96;100732.13;5032678;28;20025;-45
2023/07/25 08:52:28;;;;;;;;;;;;;;;22.61;85.11;100737.16;5033478;28;20448;-45
2023/07/25 08:54:54;;;;;;;0.65;0.00;;;;;;;22.69;82.58;100744.88;5033156;28;19980;-47
2023/07/25 08:57:20;;;;;;;0.00;0.00;;;;;;;22.07;82.13;100742.78;5031495;28;20045;-45
2023/07/25 08:59:50;;;;;;;0.00;0.00;;;;;;;21.37;83.18;100745.31;5032908;28;20518;-47
2023/07/25 09:02:16;;;;;;;0.00;0.00;;;;;;;21.60;85.90;100754.38;5032762;28;20033;-43
2023/07/25 09:04:43;;;;;;;0.00;0.00;;;;;;;22.24;81.84;100748.13;5032660;28;20040;-44
2023/07/25 09:07:08;;;;;;;0.00;0.00;;;;;;;22.16;82.89;100756.81;5032876;28;20048;-47
2023/07/25 09:09:34;;;;;;;0.00;0.00;;;;;;;21.73;84.26;100748.47;5032276;28;20022;-45
2023/07/25 09:11:59;;;;;;;0.00;0.00;;;;;;;21.43;86.10;100757.19;5032697;28;20115;-46
2023/07/25 09:14:24;;;;;;;0.00;0.00;;;;;;;21.02;86.49;100759.41;5032787;28;20032;-47
2023/07/25 09:16:50;;;;;;;0.00;0.00;;;;;;;20.49;89.44;100766.25;5032641;28;20033;-46
2023/07/25 09:19:16;;;;;;;0.00;0.00;;;;;;;20.43;89.51;100764.50;5032351;28;20550;-46
2023/07/25 09:21:49;;;;;;;0.00;0.00;;;;;;;20.17;90.40;100770.41;5031544;28;20104;-46
2023/07/25 09:24:14;;;;;;;0.00;0.00;;;;;;;20.05;89.12;100769.63;5032873;28;20033;-46
2023/07/25 09:26:47;;;;;;;0.10;0.00;;;;;;;19.93;89.45;100769.72;5032956;28;20032;-46
2023/07/25 09:29:12;;;;;;;0.00;0.00;;;;;;;19.72;91.39;100773.97;5032455;28;20026;-45
2023/07/25 09:31:45;;;;;;;0.00;0.00;;;;;;;19.85;91.57;100780.19;5032205;28;20036;-45
2023/07/25 09:34:16;;;;;;;0.00;0.00;;;;;;;21.05;91.50;100786.25;5032136;28;20033;-46
2023/07/25 09:36:47;;;;;;;0.00;0.00;;;;;;;21.51;87.74;100788.75;5033217;28;20036;-44
2023/07/25 09:39:13;;;;;;;0.00;0.00;;;;;;;21.84;86.75;100785.03;5031168;28;20440;-46
2023/07/25 09:41:39;;;;;;;0.00;0.00;;;;;;;22.04;85.19;100792.63;5032074;28;20081;-43
2023/07/25 09:44:07;;;;;;;0.00;0.00;;;;;;;21.90;84.60;100797.69;5032284;28;20133;-46
2023/07/25 09:46:33;;;;;;;0.00;0.00;;;;;;;21.50;84.28;100798.88;5032674;28;20471;-45
2023/07/25 09:48:58;;;;;;;0.00;0.00;;;;;;;21.21;82.77;100801.78;5032312;28;20052;-45
2023/07/25 09:51:24;;;;;;;0.00;0.00;;;;;;;21.70;83.93;100809.25;5032378;28;20076;-47
2023/07/25 09:53:50;;;;;;;0.00;0.00;;;;;;;22.78;82.53;100803.69;5031608;28;20021;-47
2023/07/25 09:56:16;;;;;;;0.00;0.00;;;;;;;23.88;78.21;100802.84;5032972;28;20583;-46
2023/07/25 09:58:41;;;;;;;0.00;0.00;;;;;;;23.84;76.12;100803.66;5032396;28;20145;-46
2023/07/25 10:01:09;;;;;;;0.00;0.00;;;;;;;24.53;76.46;100799.59;5033100;28;20026;-45
2023/07/25 10:03:35;;;;;;;0.00;0.00;;;;;;;24.75;72.43;100804.81;5033485;28;20105;-44
2023/07/25 10:06:01;;;;;;;0.00;0.00;;;;;;;25.39;72.46;100806.03;5048652;28;20219;-44
2023/07/25 10:08:27;;;;;;;0.00;0.00;;;;;;;25.72;70.65;100804.47;5032472;28;20087;-44
2023/07/25 10:10:54;;;;;;;0.10;0.00;;;;;;;25.71;70.59;100810.28;5032058;28;20410;-45
2023/07/25 10:13:20;;;;;;;0.00;0.00;;;;;;;24.97;72.81;100810.00;5031847;28;20041;-42
2023/07/25 10:15:45;;;;;;;0.00;0.00;;;;;;;24.26;75.84;100816.34;5031916;28;20029;-46
2023/07/25 10:18:24;;;;;;;0.00;0.00;;;;;;;24.20;74.94;100815.53;5030596;28;20041;-45
2023/07/25 10:20:51;;;;;;;0.00;0.00;;;;;;;24.00;74.34;100821.00;5030478;28;20088;-45
2023/07/25 10:23:17;;;;;;;0.00;0.00;;;;;;;24.68;73.49;100810.59;5030361;28;20033;-46
2023/07/25 10:25:42;;;;;;;0.00;0.00;;;;;;;24.63;73.71;100812.53;5030077;28;20022;-47
2023/07/25 10:28:10;;;;;;;0.00;0.00;;;;;;;24.07;74.69;100825.13;5031405;28;20083;-50
2023/07/25 10:30:45;;;;;;;;;;;;;;;23.55;77.31;100820.56;5031528;28;20439;-46
2023/07/25 10:33:12;;;;;;;0.00;0.00;;;;;;;23.24;75.51;100827.84;5031495;28;19913;-44
2023/07/25 10:35:38;;;;;;;;;;;;;;;23.51;78.15;100815.88;5031691;28;20447;-47
2023/07/25 10:38:08;;;;;;;0.00;0.00;;;;;;;23.43;76.85;100815.31;5030920;28;19916;-49
2023/07/25 10:40:50;;;;;;;0.00;0.00;;;;;;;23.00;78.49;100814.53;5031029;28;20033;-47
2023/07/25 10:43:16;;;;;;;0.00;0.00;;;;;;;23.17;81.13;100821.75;5031041;28;20060;-44
2023/07/25 10:45:44;;;;;;;0.00;0.00;;;;;;;23.54;77.71;100807.94;5031144;28;20425;-46
2023/07/25 10:48:43;;;;;;;0.00;0.00;;;;;;;23.91;76.37;100826.22;5031037;28;20029;-47
2023/07/25 10:51:09;;;;;;;0.00;0.00;;;;;;;23.64;76.87;100829.09;5045022;28;20033;-45
2023/07/25 10:53:35;;;;;;;0.00;0.00;;;;;;;24.00;75.29;100835.56;5029596;28;20036;-46
2023/07/25 10:56:03;;;;;;;0.00;0.00;;;;;;;24.58;72.32;100832.63;5031152;28;20033;-45
2023/07/25 10:58:29;;;;;;;0.00;0.00;;;;;;;24.72;72.17;100830.13;5030661;28;20073;-45
2023/07/25 11:00:54;;;;;;;0.00;0.00;;;;;;;24.27;73.55;100840.81;5030877;28;20021;-49
2023/07/25 11:03:35;;;;;;;0.00;0.00;;;;;;;23.78;75.38;100833.03;5029588;28;20028;-47
2023/07/25 11:06:06;;;;;;;0.00;0.00;;;;;;;23.81;75.37;100827.00;5030715;28;20091;-46
2023/07/25 11:08:42;;;;;;;0.00;0.00;;;;;;;24.89;73.09;100836.16;5030643;28;20028;-43
2023/07/25 11:11:11;;;;;;;0.00;0.00;;;;;;;24.35;71.34;100828.44;5030590;28;20031;-48
2023/07/25 11:13:38;;;;;;;0.00;0.00;;;;;;;24.60;72.20;100838.69;5029543;28;20053;-47
2023/07/25 11:16:05;;;;;;;0.00;0.00;;;;;;;24.82;73.03;100829.28;5030418;28;20021;-45